Terminal Aerodrome Forecast
Issued by NWS

Home | Current Version | Previous Version | Text Only | Print | Product List | Glossary On
Versions: 1 2 3 4 5 6 7 8 9 10 11 12
000
FTUS42 KTAE 300500
TAFABY
TAF
KABY 300530Z 3006/3106 27005KT P6SM FEW250
      TEMPO 3009/3011 BKN025
     FM301300 34011G17KT P6SM FEW250
     FM310000 33004KT P6SM SKC=

USA.gov is the U.S. government's official web portal to all federal, state and local government web resources and services.